createdAt,value
2024-03-24T00:02:33.977Z,98358.38
2024-03-24T00:07:42.820Z,98363.38
2024-03-24T00:12:55.602Z,98357.34
2024-03-24T00:18:01.539Z,98367.50
2024-03-24T00:23:16.819Z,98361.56
2024-03-24T00:28:28.389Z,98355.66
2024-03-24T00:33:38.399Z,98362.38
2024-03-24T00:38:43.485Z,98352.06
2024-03-24T00:43:55.837Z,98344.31
2024-03-24T00:49:10.736Z,98336.59
2024-03-24T00:54:23.170Z,98344.28
2024-03-24T00:59:32.257Z,98341.75
2024-03-24T01:04:42.088Z,98340.06
2024-03-24T01:09:55.693Z,98339.22
2024-03-24T01:15:04.120Z,98340.00
2024-03-24T01:20:16.123Z,98329.81
2024-03-24T01:25:28.323Z,98336.66
2024-03-24T01:30:41.220Z,98334.88
2024-03-24T01:35:50.327Z,98346.78
2024-03-24T01:40:59.814Z,98340.00
2024-03-24T01:46:07.902Z,98302.78
2024-03-24T01:51:14.261Z,98323.94
2024-03-24T01:56:21.975Z,98328.06
2024-03-24T02:01:29.416Z,98328.06
2024-03-24T02:06:34.899Z,98315.38
2024-03-24T02:11:40.434Z,98322.03
2024-03-24T02:16:53.636Z,98320.38
2024-03-24T02:22:04.974Z,98329.72
2024-03-24T02:32:33.493Z,98332.28
2024-03-24T02:37:43.075Z,98340.78
2024-03-24T02:42:52.123Z,98343.41
2024-03-24T02:47:58.047Z,98353.75
2024-03-24T02:53:07.947Z,98336.00
2024-03-24T02:58:23.717Z,98350.53
2024-03-24T03:03:28.797Z,98352.22
2024-03-24T03:08:33.791Z,98346.16
2024-03-24T03:13:50.234Z,98341.91
2024-03-24T03:19:01.687Z,98341.00
2024-03-24T03:24:06.994Z,98340.97
2024-03-24T03:29:20.507Z,98346.91
2024-03-24T03:34:34.138Z,98328.97
2024-03-24T03:39:38.703Z,98329.81
2024-03-24T03:44:50.572Z,98322.16
2024-03-24T03:50:03.920Z,98329.78
2024-03-24T03:55:13.126Z,98334.88
2024-03-24T04:00:22.554Z,98334.78
2024-03-24T04:05:33.439Z,98323.66
2024-03-24T04:10:40.778Z,98327.13
2024-03-24T04:21:05.570Z,98338.13
2024-03-24T04:26:12.601Z,98334.66
2024-03-24T04:31:24.785Z,98341.53
2024-03-24T04:36:31.960Z,98334.47
2024-03-24T04:41:45.172Z,98342.91
2024-03-24T04:46:53.191Z,98345.38
2024-03-24T04:52:08.107Z,98347.97
2024-03-24T04:57:14.713Z,98354.78
2024-03-24T05:02:23.074Z,98338.63
2024-03-24T05:07:39.883Z,98345.41
2024-03-24T05:12:54.465Z,98354.66
2024-03-24T05:23:19.346Z,98348.53
2024-03-24T05:28:35.459Z,98333.16
2024-03-24T05:33:53.918Z,98331.34
2024-03-24T05:39:08.585Z,98325.16
2024-03-24T05:44:14.577Z,98316.44
2024-03-24T05:49:21.375Z,98322.41
2024-03-24T05:54:32.737Z,98323.06
2024-03-24T05:59:40.364Z,98330.59
2024-03-24T06:04:51.868Z,98327.00
2024-03-24T06:10:02.948Z,98321.88
2024-03-24T06:15:09.950Z,98320.19
2024-03-24T06:20:22.868Z,98309.66
2024-03-24T06:25:42.372Z,98305.28
2024-03-24T06:30:53.966Z,98297.56
2024-03-24T06:36:05.150Z,98295.63
2024-03-24T06:41:16.633Z,98295.84
2024-03-24T06:46:24.183Z,98294.31
2024-03-24T06:51:35.148Z,98296.63
2024-03-24T06:56:40.278Z,98308.66
2024-03-24T07:01:46.107Z,98303.47
2024-03-24T07:12:10.182Z,98276.34
2024-03-24T07:17:26.020Z,98277.06
2024-03-24T07:22:39.731Z,98273.13
2024-03-24T07:27:48.857Z,98281.56
2024-03-24T07:32:53.788Z,98286.84
2024-03-24T07:38:02.503Z,98270.13
2024-03-24T07:43:12.430Z,98264.59
2024-03-24T07:48:18.515Z,98264.53
2024-03-24T07:53:25.827Z,98250.88
2024-03-24T07:58:30.863Z,98237.56
2024-03-24T08:03:46.180Z,98242.59
2024-03-24T08:08:58.189Z,98253.44
2024-03-24T08:14:03.353Z,98249.94
2024-03-24T08:19:10.818Z,98248.31
2024-03-24T08:24:18.963Z,98254.91
2024-03-24T08:29:29.475Z,98247.13
2024-03-24T08:34:41.808Z,98229.41
2024-03-24T08:39:52.119Z,98226.78
2024-03-24T08:44:56.653Z,98208.00
2024-03-24T08:50:03.244Z,98199.66
2024-03-24T08:55:14.743Z,98188.97
2024-03-24T09:00:21.608Z,98195.25
2024-03-24T09:05:27.790Z,98197.31
2024-03-24T09:10:35.309Z,98191.38
2024-03-24T09:15:45.153Z,98182.97
2024-03-24T09:20:50.028Z,98171.78
2024-03-24T09:25:58.808Z,98156.94
2024-03-24T09:31:04.603Z,98160.41
2024-03-24T09:36:13.282Z,98117.56
2024-03-24T09:41:42.721Z,98147.91
2024-03-24T09:47:00.448Z,98137.84
2024-03-24T09:52:08.272Z,98134.44
2024-03-24T09:57:21.327Z,98108.72
2024-03-24T10:02:27.622Z,98122.84
2024-03-24T10:07:38.529Z,98109.97
2024-03-24T10:12:55.772Z,98105.19
2024-03-24T10:18:07.792Z,98094.06
2024-03-24T10:23:18.029Z,98076.97
2024-03-24T10:28:29.755Z,98078.44
2024-03-24T10:33:46.772Z,98073.16
2024-03-24T10:38:52.870Z,98013.97
2024-03-24T10:44:11.137Z,98052.88
2024-03-24T10:49:22.019Z,98046.22
2024-03-24T10:54:30.272Z,98046.22
2024-03-24T10:59:45.924Z,98028.47
2024-03-24T11:04:51.963Z,98025.72
2024-03-24T11:09:59.642Z,98019.69
2024-03-24T11:15:07.800Z,97977.41
2024-03-24T11:20:27.148Z,98015.41
2024-03-24T11:31:03.339Z,98012.06
2024-03-24T11:36:23.520Z,97989.78
2024-03-24T11:41:28.455Z,97997.41
2024-03-24T11:46:42.825Z,97959.84
2024-03-24T11:51:52.605Z,97999.19
2024-03-24T11:57:01.186Z,97992.41
2024-03-24T12:02:08.274Z,97993.28
2024-03-24T12:07:14.895Z,97961.13
2024-03-24T12:12:20.229Z,97979.56
2024-03-24T12:17:33.402Z,97967.13
2024-03-24T12:22:41.831Z,97964.66
2024-03-24T12:27:51.940Z,97962.31
2024-03-24T12:32:59.656Z,97957.00
2024-03-24T12:47:41.323Z,97947.66
2024-03-24T12:52:47.080Z,97937.97
2024-03-24T12:58:03.640Z,97887.19
2024-03-24T13:03:15.042Z,97939.09
2024-03-24T13:08:23.115Z,97923.84
2024-03-24T13:13:38.951Z,97921.22
2024-03-24T13:18:51.134Z,97906.59
2024-03-24T13:23:59.790Z,97903.06
2024-03-24T13:29:05.511Z,97902.19
2024-03-24T13:34:22.274Z,97889.97
2024-03-24T13:39:46.427Z,97885.34
2024-03-24T13:45:04.910Z,97904.41
2024-03-24T13:50:14.259Z,97895.91
2024-03-24T13:55:20.708Z,97875.31
2024-03-24T14:00:31.296Z,97889.63
2024-03-24T14:05:39.450Z,97890.91
2024-03-24T14:10:59.901Z,97880.56
2024-03-24T14:21:40.551Z,97876.84
2024-03-24T14:26:50.860Z,97884.59
2024-03-24T14:31:57.609Z,97874.22
2024-03-24T14:37:22.895Z,97882.13
2024-03-24T14:42:39.190Z,97882.25
2024-03-24T14:53:19.306Z,97884.03
2024-03-24T14:58:25.914Z,97883.22
2024-03-24T15:03:34.042Z,97879.16
2024-03-24T15:08:51.129Z,97887.56
2024-03-24T15:14:00.755Z,97888.72
2024-03-24T15:19:07.778Z,97886.25
2024-03-24T15:24:20.555Z,97893.94
2024-03-24T15:29:25.692Z,97851.84
2024-03-24T15:34:37.324Z,97882.91
2024-03-24T15:39:47.894Z,97884.53
2024-03-24T15:44:52.770Z,97879.38
2024-03-24T15:49:58.020Z,97887.88
2024-03-24T15:55:05.491Z,97891.34
2024-03-24T16:00:20.538Z,97881.31
2024-03-24T16:05:27.461Z,97905.09
2024-03-24T16:10:59.858Z,97893.16
2024-03-24T16:16:17.299Z,97893.34
2024-03-24T16:21:44.051Z,97876.56
2024-03-24T16:26:50.748Z,97902.09
2024-03-24T16:32:03.094Z,97896.13
2024-03-24T16:37:12.064Z,97902.09
2024-03-24T16:42:24.754Z,97909.78
2024-03-24T16:52:53.006Z,97898.72
2024-03-24T16:58:05.203Z,97898.72
2024-03-24T17:03:16.363Z,97901.22
2024-03-24T17:08:24.248Z,97899.59
2024-03-24T17:13:34.378Z,97909.00
2024-03-24T17:18:39.528Z,97903.03
2024-03-24T17:23:54.831Z,97880.22
2024-03-24T17:29:07.520Z,97890.50
2024-03-24T17:34:12.147Z,97897.03
2024-03-24T17:39:32.587Z,97887.06
2024-03-24T17:44:40.084Z,97882.84
2024-03-24T17:49:47.931Z,97901.56
2024-03-24T17:54:53.031Z,97906.69
2024-03-24T18:00:07.662Z,97900.66
2024-03-24T18:05:18.182Z,97898.88
2024-03-24T18:10:29.913Z,97900.56
2024-03-24T18:15:39.522Z,97910.00
2024-03-24T18:20:57.383Z,97901.56
2024-03-24T18:26:04.387Z,97888.84
2024-03-24T18:31:19.000Z,97901.47
2024-03-24T18:36:28.883Z,97898.03
2024-03-24T18:47:00.409Z,97885.09
2024-03-24T18:52:08.098Z,97897.09
2024-03-24T18:57:18.748Z,97887.06
2024-03-24T19:02:32.959Z,97892.13
2024-03-24T19:07:37.842Z,97893.66
2024-03-24T19:12:43.805Z,97876.72
2024-03-24T19:23:18.080Z,97880.09
2024-03-24T19:28:24.721Z,97878.47
2024-03-24T19:33:33.141Z,97865.59
2024-03-24T19:38:43.486Z,97873.28
2024-03-24T19:43:54.278Z,97876.72
2024-03-24T19:49:01.319Z,97883.56
2024-03-24T19:54:07.223Z,97884.34
2024-03-24T19:59:20.968Z,97889.38
2024-03-24T20:04:33.273Z,97888.53
2024-03-24T20:09:42.965Z,97874.91
2024-03-24T20:14:47.681Z,97856.19
2024-03-24T20:19:54.718Z,97868.72
2024-03-24T20:25:05.738Z,97859.59
2024-03-24T20:30:11.987Z,97888.53
2024-03-24T20:35:25.026Z,97873.22
2024-03-24T20:40:30.038Z,97863.03
2024-03-24T20:45:43.650Z,97870.75
2024-03-24T20:50:51.610Z,97859.59
2024-03-24T21:01:17.429Z,97871.66
2024-03-24T21:06:24.331Z,97860.47
2024-03-24T21:11:36.248Z,97868.16
2024-03-24T21:16:47.821Z,97862.13
2024-03-24T21:27:12.397Z,97834.44
2024-03-24T21:32:17.755Z,97865.56
2024-03-24T21:37:46.436Z,97857.88
2024-03-24T21:42:56.368Z,97845.94
2024-03-24T21:48:02.623Z,97847.59
2024-03-24T21:53:10.877Z,97857.94
2024-03-24T21:58:16.244Z,97851.06
2024-03-24T22:03:25.831Z,97847.69
2024-03-24T22:08:39.670Z,97843.38
2024-03-24T22:13:49.922Z,97850.91
2024-03-24T22:18:59.735Z,97867.34
2024-03-24T22:24:09.102Z,97865.56
2024-03-24T22:29:19.361Z,97878.38
2024-03-24T22:34:25.474Z,97881.78
2024-03-24T22:44:50.286Z,97903.25
2024-03-24T22:49:55.759Z,97912.78
2024-03-24T22:55:04.768Z,97911.94
2024-03-24T23:00:25.305Z,97884.63
2024-03-24T23:05:37.618Z,97879.63
2024-03-24T23:10:44.644Z,97871.41
2024-03-24T23:15:52.710Z,97889.13
2024-03-24T23:20:58.851Z,97900.09
2024-03-24T23:26:06.854Z,97895.78
2024-03-24T23:31:12.796Z,97889.69
2024-03-24T23:36:17.930Z,97911.06
2024-03-24T23:41:27.709Z,97909.59
2024-03-24T23:46:40.858Z,97914.41
2024-03-24T23:51:51.400Z,97936.66
2024-03-24T23:57:07.349Z,97945.78
